sensor_id;sensor_type;location;lat;lon;timestamp;P1;durP1;ratioP1;P2;durP2;ratioP2
68106;SDS011;54892;47.488;19.026;2022-10-17T00:02:33;8.95;;;4.37;;
68106;SDS011;54892;47.488;19.026;2022-10-17T00:05:38;8.02;;;4.43;;
68106;SDS011;54892;47.488;19.026;2022-10-17T00:08:42;8.73;;;4.18;;
68106;SDS011;54892;47.488;19.026;2022-10-17T00:11:45;6.75;;;4.35;;
68106;SDS011;54892;47.488;19.026;2022-10-17T00:14:50;8.75;;;4.32;;
68106;SDS011;54892;47.488;19.026;2022-10-17T00:17:53;10.50;;;5.15;;
68106;SDS011;54892;47.488;19.026;2022-10-17T00:20:56;6.55;;;4.25;;
68106;SDS011;54892;47.488;19.026;2022-10-17T00:24:00;14.40;;;4.55;;
68106;SDS011;54892;47.488;19.026;2022-10-17T00:27:03;7.45;;;4.55;;
68106;SDS011;54892;47.488;19.026;2022-10-17T00:30:09;5.97;;;4.40;;
68106;SDS011;54892;47.488;19.026;2022-10-17T00:33:14;7.22;;;4.20;;
68106;SDS011;54892;47.488;19.026;2022-10-17T00:36:18;7.07;;;4.00;;
68106;SDS011;54892;47.488;19.026;2022-10-17T00:39:22;12.18;;;4.50;;
68106;SDS011;54892;47.488;19.026;2022-10-17T00:42:25;7.60;;;4.60;;
68106;SDS011;54892;47.488;19.026;2022-10-17T00:45:30;12.30;;;4.57;;
68106;SDS011;54892;47.488;19.026;2022-10-17T00:48:34;8.10;;;4.25;;
68106;SDS011;54892;47.488;19.026;2022-10-17T00:51:40;6.22;;;4.22;;
68106;SDS011;54892;47.488;19.026;2022-10-17T00:54:46;10.15;;;4.35;;
68106;SDS011;54892;47.488;19.026;2022-10-17T00:57:52;7.93;;;4.68;;
68106;SDS011;54892;47.488;19.026;2022-10-17T01:00:56;10.38;;;4.50;;
68106;SDS011;54892;47.488;19.026;2022-10-17T01:04:00;7.17;;;4.33;;
68106;SDS011;54892;47.488;19.026;2022-10-17T01:07:03;9.38;;;4.80;;
68106;SDS011;54892;47.488;19.026;2022-10-17T01:10:07;9.45;;;4.30;;
68106;SDS011;54892;47.488;19.026;2022-10-17T01:13:12;9.05;;;4.60;;
68106;SDS011;54892;47.488;19.026;2022-10-17T01:16:28;7.40;;;4.40;;
68106;SDS011;54892;47.488;19.026;2022-10-17T01:19:45;8.60;;;4.07;;
68106;SDS011;54892;47.488;19.026;2022-10-17T01:23:15;7.32;;;4.05;;
68106;SDS011;54892;47.488;19.026;2022-10-17T01:26:32;8.68;;;4.37;;
68106;SDS011;54892;47.488;19.026;2022-10-17T01:33:34;6.62;;;4.03;;
68106;SDS011;54892;47.488;19.026;2022-10-17T01:36:47;8.23;;;4.15;;
68106;SDS011;54892;47.488;19.026;2022-10-17T01:39:55;6.43;;;4.40;;
68106;SDS011;54892;47.488;19.026;2022-10-17T01:43:06;8.63;;;4.35;;
68106;SDS011;54892;47.488;19.026;2022-10-17T01:46:15;7.97;;;4.28;;
68106;SDS011;54892;47.488;19.026;2022-10-17T01:49:25;19.65;;;5.05;;
68106;SDS011;54892;47.488;19.026;2022-10-17T01:52:33;7.97;;;4.43;;
68106;SDS011;54892;47.488;19.026;2022-10-17T01:55:40;7.12;;;4.22;;
68106;SDS011;54892;47.488;19.026;2022-10-17T01:58:46;7.95;;;4.43;;
68106;SDS011;54892;47.488;19.026;2022-10-17T02:01:54;8.23;;;4.37;;
68106;SDS011;54892;47.488;19.026;2022-10-17T02:05:01;7.90;;;4.40;;
68106;SDS011;54892;47.488;19.026;2022-10-17T02:08:05;6.40;;;3.95;;
68106;SDS011;54892;47.488;19.026;2022-10-17T02:11:10;11.32;;;4.35;;
68106;SDS011;54892;47.488;19.026;2022-10-17T02:14:19;7.97;;;4.07;;
68106;SDS011;54892;47.488;19.026;2022-10-17T02:17:29;8.50;;;4.03;;
68106;SDS011;54892;47.488;19.026;2022-10-17T02:20:44;8.77;;;4.80;;
68106;SDS011;54892;47.488;19.026;2022-10-17T02:23:52;8.23;;;4.32;;
68106;SDS011;54892;47.488;19.026;2022-10-17T02:27:03;11.75;;;5.45;;
68106;SDS011;54892;47.488;19.026;2022-10-17T02:30:10;6.97;;;4.35;;
68106;SDS011;54892;47.488;19.026;2022-10-17T02:33:18;6.87;;;4.53;;
68106;SDS011;54892;47.488;19.026;2022-10-17T02:36:27;4.40;;;3.95;;
68106;SDS011;54892;47.488;19.026;2022-10-17T02:39:37;9.32;;;4.20;;
68106;SDS011;54892;47.488;19.026;2022-10-17T02:42:42;7.00;;;4.35;;
68106;SDS011;54892;47.488;19.026;2022-10-17T02:45:47;7.22;;;4.68;;
68106;SDS011;54892;47.488;19.026;2022-10-17T02:48:52;8.07;;;4.55;;
68106;SDS011;54892;47.488;19.026;2022-10-17T02:52:02;6.75;;;4.28;;
68106;SDS011;54892;47.488;19.026;2022-10-17T02:55:13;11.68;;;4.60;;
68106;SDS011;54892;47.488;19.026;2022-10-17T02:58:20;8.40;;;4.97;;
68106;SDS011;54892;47.488;19.026;2022-10-17T03:01:29;7.43;;;4.30;;
68106;SDS011;54892;47.488;19.026;2022-10-17T03:04:33;7.75;;;4.60;;
68106;SDS011;54892;47.488;19.026;2022-10-17T03:07:37;6.22;;;4.65;;
68106;SDS011;54892;47.488;19.026;2022-10-17T03:10:40;8.48;;;4.93;;
68106;SDS011;54892;47.488;19.026;2022-10-17T03:13:43;7.37;;;4.45;;
68106;SDS011;54892;47.488;19.026;2022-10-17T03:16:46;9.70;;;4.82;;
68106;SDS011;54892;47.488;19.026;2022-10-17T03:19:50;14.23;;;4.70;;
68106;SDS011;54892;47.488;19.026;2022-10-17T03:22:54;6.72;;;4.60;;
68106;SDS011;54892;47.488;19.026;2022-10-17T03:25:58;6.60;;;4.75;;
68106;SDS011;54892;47.488;19.026;2022-10-17T03:29:05;13.73;;;4.90;;
68106;SDS011;54892;47.488;19.026;2022-10-17T03:32:08;8.27;;;4.85;;
68106;SDS011;54892;47.488;19.026;2022-10-17T03:35:12;9.63;;;4.70;;
68106;SDS011;54892;47.488;19.026;2022-10-17T03:38:16;8.93;;;4.95;;
68106;SDS011;54892;47.488;19.026;2022-10-17T03:41:20;7.97;;;4.53;;
68106;SDS011;54892;47.488;19.026;2022-10-17T03:44:24;7.37;;;5.00;;
68106;SDS011;54892;47.488;19.026;2022-10-17T03:47:27;7.68;;;5.07;;
68106;SDS011;54892;47.488;19.026;2022-10-17T03:50:31;8.07;;;5.07;;
68106;SDS011;54892;47.488;19.026;2022-10-17T03:53:36;6.97;;;4.47;;
68106;SDS011;54892;47.488;19.026;2022-10-17T03:56:39;16.02;;;5.10;;
68106;SDS011;54892;47.488;19.026;2022-10-17T03:59:43;11.05;;;4.97;;
68106;SDS011;54892;47.488;19.026;2022-10-17T04:02:46;8.43;;;5.05;;
68106;SDS011;54892;47.488;19.026;2022-10-17T04:05:49;13.13;;;5.12;;
68106;SDS011;54892;47.488;19.026;2022-10-17T04:08:53;7.20;;;4.62;;
68106;SDS011;54892;47.488;19.026;2022-10-17T04:11:56;7.95;;;5.12;;
68106;SDS011;54892;47.488;19.026;2022-10-17T04:14:59;7.97;;;5.15;;
68106;SDS011;54892;47.488;19.026;2022-10-17T04:18:03;7.97;;;5.07;;
68106;SDS011;54892;47.488;19.026;2022-10-17T04:21:11;11.55;;;4.95;;
68106;SDS011;54892;47.488;19.026;2022-10-17T04:24:16;8.20;;;4.62;;
68106;SDS011;54892;47.488;19.026;2022-10-17T04:27:19;8.13;;;4.85;;
68106;SDS011;54892;47.488;19.026;2022-10-17T04:30:23;10.05;;;5.22;;
68106;SDS011;54892;47.488;19.026;2022-10-17T04:33:26;7.37;;;4.95;;
68106;SDS011;54892;47.488;19.026;2022-10-17T04:36:29;9.25;;;5.30;;
68106;SDS011;54892;47.488;19.026;2022-10-17T04:39:34;8.98;;;5.22;;
68106;SDS011;54892;47.488;19.026;2022-10-17T04:42:37;8.67;;;5.60;;
68106;SDS011;54892;47.488;19.026;2022-10-17T04:45:40;9.55;;;5.20;;
68106;SDS011;54892;47.488;19.026;2022-10-17T04:48:43;9.18;;;5.35;;
68106;SDS011;54892;47.488;19.026;2022-10-17T04:51:47;9.20;;;5.75;;
68106;SDS011;54892;47.488;19.026;2022-10-17T04:54:51;10.80;;;6.12;;
68106;SDS011;54892;47.488;19.026;2022-10-17T04:57:55;11.80;;;6.00;;
68106;SDS011;54892;47.488;19.026;2022-10-17T05:00:59;15.25;;;5.90;;
68106;SDS011;54892;47.488;19.026;2022-10-17T05:04:06;11.30;;;5.72;;
68106;SDS011;54892;47.488;19.026;2022-10-17T05:07:09;11.52;;;5.90;;
68106;SDS011;54892;47.488;19.026;2022-10-17T05:10:14;12.00;;;5.87;;
68106;SDS011;54892;47.488;19.026;2022-10-17T05:13:17;6.72;;;4.97;;
68106;SDS011;54892;47.488;19.026;2022-10-17T05:16:21;12.20;;;5.62;;
68106;SDS011;54892;47.488;19.026;2022-10-17T05:19:24;9.98;;;5.95;;
68106;SDS011;54892;47.488;19.026;2022-10-17T05:22:28;13.98;;;5.87;;
68106;SDS011;54892;47.488;19.026;2022-10-17T05:25:32;12.70;;;5.97;;
68106;SDS011;54892;47.488;19.026;2022-10-17T05:28:36;10.00;;;5.70;;
68106;SDS011;54892;47.488;19.026;2022-10-17T05:31:39;13.45;;;6.93;;
68106;SDS011;54892;47.488;19.026;2022-10-17T05:34:43;10.75;;;6.00;;
68106;SDS011;54892;47.488;19.026;2022-10-17T05:37:46;11.93;;;6.15;;
68106;SDS011;54892;47.488;19.026;2022-10-17T05:40:55;9.93;;;5.95;;
68106;SDS011;54892;47.488;19.026;2022-10-17T05:43:59;14.45;;;6.87;;
68106;SDS011;54892;47.488;19.026;2022-10-17T05:47:03;11.68;;;6.07;;
68106;SDS011;54892;47.488;19.026;2022-10-17T05:50:07;11.63;;;6.43;;
68106;SDS011;54892;47.488;19.026;2022-10-17T05:53:11;9.65;;;6.60;;
68106;SDS011;54892;47.488;19.026;2022-10-17T05:56:15;13.57;;;6.20;;
68106;SDS011;54892;47.488;19.026;2022-10-17T05:59:21;10.95;;;6.60;;
68106;SDS011;54892;47.488;19.026;2022-10-17T06:02:26;13.68;;;6.53;;
68106;SDS011;54892;47.488;19.026;2022-10-17T06:05:29;12.30;;;6.45;;
68106;SDS011;54892;47.488;19.026;2022-10-17T06:08:32;11.48;;;6.95;;
68106;SDS011;54892;47.488;19.026;2022-10-17T06:11:37;10.63;;;6.37;;
68106;SDS011;54892;47.488;19.026;2022-10-17T06:14:40;10.17;;;6.10;;
68106;SDS011;54892;47.488;19.026;2022-10-17T06:17:43;13.77;;;6.50;;
68106;SDS011;54892;47.488;19.026;2022-10-17T06:20:47;18.90;;;6.50;;
68106;SDS011;54892;47.488;19.026;2022-10-17T06:23:50;13.77;;;6.55;;
68106;SDS011;54892;47.488;19.026;2022-10-17T06:26:55;14.40;;;6.80;;
68106;SDS011;54892;47.488;19.026;2022-10-17T06:29:58;12.98;;;7.80;;
68106;SDS011;54892;47.488;19.026;2022-10-17T06:33:02;12.80;;;7.37;;
68106;SDS011;54892;47.488;19.026;2022-10-17T06:36:06;13.20;;;7.10;;
68106;SDS011;54892;47.488;19.026;2022-10-17T06:42:15;13.00;;;7.00;;
68106;SDS011;54892;47.488;19.026;2022-10-17T06:45:19;15.18;;;8.05;;
68106;SDS011;54892;47.488;19.026;2022-10-17T06:48:22;16.48;;;7.30;;
68106;SDS011;54892;47.488;19.026;2022-10-17T06:51:25;12.23;;;7.32;;
68106;SDS011;54892;47.488;19.026;2022-10-17T06:54:29;14.52;;;7.70;;
68106;SDS011;54892;47.488;19.026;2022-10-17T06:57:33;12.20;;;7.32;;
68106;SDS011;54892;47.488;19.026;2022-10-17T07:00:37;22.80;;;8.23;;
68106;SDS011;54892;47.488;19.026;2022-10-17T07:03:40;20.40;;;7.85;;
68106;SDS011;54892;47.488;19.026;2022-10-17T07:06:44;15.95;;;7.90;;
68106;SDS011;54892;47.488;19.026;2022-10-17T07:09:48;14.40;;;7.70;;
68106;SDS011;54892;47.488;19.026;2022-10-17T07:12:54;13.30;;;7.70;;
68106;SDS011;54892;47.488;19.026;2022-10-17T07:15:57;15.90;;;8.35;;
68106;SDS011;54892;47.488;19.026;2022-10-17T07:19:02;13.40;;;7.63;;
68106;SDS011;54892;47.488;19.026;2022-10-17T07:22:05;16.87;;;8.25;;
68106;SDS011;54892;47.488;19.026;2022-10-17T07:25:09;19.15;;;8.48;;
68106;SDS011;54892;47.488;19.026;2022-10-17T07:28:14;14.27;;;8.10;;
68106;SDS011;54892;47.488;19.026;2022-10-17T07:31:18;14.02;;;8.65;;
68106;SDS011;54892;47.488;19.026;2022-10-17T07:34:22;18.48;;;8.75;;
68106;SDS011;54892;47.488;19.026;2022-10-17T07:37:27;24.73;;;9.43;;
68106;SDS011;54892;47.488;19.026;2022-10-17T07:40:30;23.50;;;8.77;;
68106;SDS011;54892;47.488;19.026;2022-10-17T07:43:35;17.00;;;8.85;;
68106;SDS011;54892;47.488;19.026;2022-10-17T07:46:39;27.98;;;9.85;;
68106;SDS011;54892;47.488;19.026;2022-10-17T07:49:42;16.73;;;8.85;;
68106;SDS011;54892;47.488;19.026;2022-10-17T07:52:46;18.60;;;8.82;;
68106;SDS011;54892;47.488;19.026;2022-10-17T07:55:49;16.83;;;8.80;;
68106;SDS011;54892;47.488;19.026;2022-10-17T07:58:54;18.70;;;8.82;;
68106;SDS011;54892;47.488;19.026;2022-10-17T08:02:03;18.62;;;8.55;;
68106;SDS011;54892;47.488;19.026;2022-10-17T08:05:08;22.85;;;8.50;;
68106;SDS011;54892;47.488;19.026;2022-10-17T08:08:11;19.80;;;8.65;;
68106;SDS011;54892;47.488;19.026;2022-10-17T08:11:15;17.02;;;9.10;;
68106;SDS011;54892;47.488;19.026;2022-10-17T08:14:19;20.33;;;8.85;;
68106;SDS011;54892;47.488;19.026;2022-10-17T08:17:23;16.70;;;8.65;;
68106;SDS011;54892;47.488;19.026;2022-10-17T08:20:26;23.00;;;8.88;;
68106;SDS011;54892;47.488;19.026;2022-10-17T08:23:29;21.00;;;8.93;;
68106;SDS011;54892;47.488;19.026;2022-10-17T08:26:32;18.60;;;9.38;;
68106;SDS011;54892;47.488;19.026;2022-10-17T08:29:38;19.25;;;9.43;;
68106;SDS011;54892;47.488;19.026;2022-10-17T08:32:42;18.10;;;9.00;;
68106;SDS011;54892;47.488;19.026;2022-10-17T08:35:45;19.45;;;9.55;;
68106;SDS011;54892;47.488;19.026;2022-10-17T08:38:48;18.10;;;9.50;;
68106;SDS011;54892;47.488;19.026;2022-10-17T08:41:56;15.10;;;9.20;;
68106;SDS011;54892;47.488;19.026;2022-10-17T08:45:08;27.27;;;10.02;;
68106;SDS011;54892;47.488;19.026;2022-10-17T08:48:19;20.70;;;9.98;;
68106;SDS011;54892;47.488;19.026;2022-10-17T08:51:25;23.85;;;10.13;;
68106;SDS011;54892;47.488;19.026;2022-10-17T08:54:34;19.62;;;9.68;;
68106;SDS011;54892;47.488;19.026;2022-10-17T08:57:42;19.62;;;9.18;;
68106;SDS011;54892;47.488;19.026;2022-10-17T09:00:47;18.20;;;9.60;;
68106;SDS011;54892;47.488;19.026;2022-10-17T09:04:00;38.92;;;9.95;;
68106;SDS011;54892;47.488;19.026;2022-10-17T09:07:12;17.02;;;9.43;;
68106;SDS011;54892;47.488;19.026;2022-10-17T09:10:22;15.13;;;9.05;;
68106;SDS011;54892;47.488;19.026;2022-10-17T09:13:39;19.52;;;9.10;;
68106;SDS011;54892;47.488;19.026;2022-10-17T09:16:56;20.77;;;9.27;;
68106;SDS011;54892;47.488;19.026;2022-10-17T09:20:08;14.35;;;7.72;;
68106;SDS011;54892;47.488;19.026;2022-10-17T09:23:15;19.00;;;7.62;;
68106;SDS011;54892;47.488;19.026;2022-10-17T09:26:20;19.27;;;9.15;;
68106;SDS011;54892;47.488;19.026;2022-10-17T09:29:25;17.80;;;8.90;;
68106;SDS011;54892;47.488;19.026;2022-10-17T09:32:32;18.60;;;9.55;;
68106;SDS011;54892;47.488;19.026;2022-10-17T09:35:36;23.65;;;9.60;;
68106;SDS011;54892;47.488;19.026;2022-10-17T09:38:40;19.87;;;7.30;;
68106;SDS011;54892;47.488;19.026;2022-10-17T09:41:46;14.55;;;7.37;;
68106;SDS011;54892;47.488;19.026;2022-10-17T09:44:54;13.05;;;6.03;;
68106;SDS011;54892;47.488;19.026;2022-10-17T09:48:07;12.18;;;6.10;;
68106;SDS011;54892;47.488;19.026;2022-10-17T09:51:17;12.63;;;6.15;;
68106;SDS011;54892;47.488;19.026;2022-10-17T09:54:26;12.20;;;5.75;;
68106;SDS011;54892;47.488;19.026;2022-10-17T09:57:49;9.93;;;5.37;;
68106;SDS011;54892;47.488;19.026;2022-10-17T10:00:57;10.90;;;4.35;;
68106;SDS011;54892;47.488;19.026;2022-10-17T10:04:19;12.27;;;5.03;;
68106;SDS011;54892;47.488;19.026;2022-10-17T10:07:22;10.63;;;4.32;;
68106;SDS011;54892;47.488;19.026;2022-10-17T10:10:29;9.32;;;4.12;;
68106;SDS011;54892;47.488;19.026;2022-10-17T10:13:33;10.93;;;4.15;;
68106;SDS011;54892;47.488;19.026;2022-10-17T10:16:40;10.25;;;4.43;;
68106;SDS011;54892;47.488;19.026;2022-10-17T10:19:49;16.45;;;3.60;;
68106;SDS011;54892;47.488;19.026;2022-10-17T10:23:06;7.78;;;3.42;;
68106;SDS011;54892;47.488;19.026;2022-10-17T10:26:17;15.35;;;3.97;;
68106;SDS011;54892;47.488;19.026;2022-10-17T10:29:25;6.85;;;3.47;;
68106;SDS011;54892;47.488;19.026;2022-10-17T10:32:32;5.55;;;3.40;;
68106;SDS011;54892;47.488;19.026;2022-10-17T10:35:38;7.57;;;3.53;;
68106;SDS011;54892;47.488;19.026;2022-10-17T10:38:49;8.77;;;3.62;;
68106;SDS011;54892;47.488;19.026;2022-10-17T10:41:55;12.80;;;3.37;;
68106;SDS011;54892;47.488;19.026;2022-10-17T10:45:00;6.78;;;3.50;;
68106;SDS011;54892;47.488;19.026;2022-10-17T10:48:11;7.65;;;3.15;;
68106;SDS011;54892;47.488;19.026;2022-10-17T10:51:22;12.55;;;2.92;;
68106;SDS011;54892;47.488;19.026;2022-10-17T10:54:31;6.85;;;3.33;;
68106;SDS011;54892;47.488;19.026;2022-10-17T10:57:39;8.80;;;3.92;;
68106;SDS011;54892;47.488;19.026;2022-10-17T11:00:45;6.68;;;2.87;;
68106;SDS011;54892;47.488;19.026;2022-10-17T11:04:01;7.10;;;3.25;;
68106;SDS011;54892;47.488;19.026;2022-10-17T11:07:15;5.75;;;2.62;;
68106;SDS011;54892;47.488;19.026;2022-10-17T11:10:24;5.97;;;3.08;;
68106;SDS011;54892;47.488;19.026;2022-10-17T11:13:45;6.55;;;3.08;;
68106;SDS011;54892;47.488;19.026;2022-10-17T11:16:56;5.75;;;3.25;;
68106;SDS011;54892;47.488;19.026;2022-10-17T11:20:12;11.82;;;3.65;;
68106;SDS011;54892;47.488;19.026;2022-10-17T11:23:22;7.83;;;3.10;;
68106;SDS011;54892;47.488;19.026;2022-10-17T11:26:31;7.43;;;2.72;;
68106;SDS011;54892;47.488;19.026;2022-10-17T11:29:38;10.55;;;3.15;;
68106;SDS011;54892;47.488;19.026;2022-10-17T11:32:43;10.60;;;3.45;;
68106;SDS011;54892;47.488;19.026;2022-10-17T11:35:50;9.77;;;3.45;;
68106;SDS011;54892;47.488;19.026;2022-10-17T11:39:00;7.12;;;3.00;;
68106;SDS011;54892;47.488;19.026;2022-10-17T11:42:05;5.03;;;2.58;;
68106;SDS011;54892;47.488;19.026;2022-10-17T11:45:14;5.68;;;2.90;;
68106;SDS011;54892;47.488;19.026;2022-10-17T11:48:22;5.05;;;2.80;;
68106;SDS011;54892;47.488;19.026;2022-10-17T11:51:29;8.73;;;2.85;;
68106;SDS011;54892;47.488;19.026;2022-10-17T11:55:04;6.95;;;3.22;;
68106;SDS011;54892;47.488;19.026;2022-10-17T11:58:17;6.00;;;2.78;;
68106;SDS011;54892;47.488;19.026;2022-10-17T12:01:31;9.88;;;3.37;;
68106;SDS011;54892;47.488;19.026;2022-10-17T12:04:44;7.87;;;2.92;;
68106;SDS011;54892;47.488;19.026;2022-10-17T12:07:58;5.32;;;2.87;;
68106;SDS011;54892;47.488;19.026;2022-10-17T12:11:09;8.85;;;3.45;;
68106;SDS011;54892;47.488;19.026;2022-10-17T12:14:34;6.23;;;2.57;;
68106;SDS011;54892;47.488;19.026;2022-10-17T12:20:56;4.70;;;2.45;;
68106;SDS011;54892;47.488;19.026;2022-10-17T12:24:00;8.55;;;2.33;;
68106;SDS011;54892;47.488;19.026;2022-10-17T12:27:27;7.18;;;2.72;;
68106;SDS011;54892;47.488;19.026;2022-10-17T12:30:35;9.82;;;2.37;;
68106;SDS011;54892;47.488;19.026;2022-10-17T12:33:46;12.68;;;3.00;;
68106;SDS011;54892;47.488;19.026;2022-10-17T12:36:50;3.60;;;2.33;;
68106;SDS011;54892;47.488;19.026;2022-10-17T12:39:53;6.22;;;2.55;;
68106;SDS011;54892;47.488;19.026;2022-10-17T12:42:58;6.82;;;2.25;;
68106;SDS011;54892;47.488;19.026;2022-10-17T12:46:01;3.95;;;2.65;;
68106;SDS011;54892;47.488;19.026;2022-10-17T12:49:15;6.55;;;2.85;;
68106;SDS011;54892;47.488;19.026;2022-10-17T12:52:23;5.45;;;2.67;;
68106;SDS011;54892;47.488;19.026;2022-10-17T12:55:28;8.25;;;2.95;;
68106;SDS011;54892;47.488;19.026;2022-10-17T12:58:33;6.60;;;2.62;;
68106;SDS011;54892;47.488;19.026;2022-10-17T13:04:40;5.12;;;1.90;;
68106;SDS011;54892;47.488;19.026;2022-10-17T13:07:44;10.10;;;2.50;;
68106;SDS011;54892;47.488;19.026;2022-10-17T13:10:50;4.65;;;2.25;;
68106;SDS011;54892;47.488;19.026;2022-10-17T13:13:56;5.95;;;2.50;;
68106;SDS011;54892;47.488;19.026;2022-10-17T13:17:02;7.82;;;2.67;;
68106;SDS011;54892;47.488;19.026;2022-10-17T13:20:15;5.85;;;2.80;;
68106;SDS011;54892;47.488;19.026;2022-10-17T13:23:24;14.15;;;2.87;;
68106;SDS011;54892;47.488;19.026;2022-10-17T13:26:30;5.53;;;2.47;;
68106;SDS011;54892;47.488;19.026;2022-10-17T13:29:35;4.82;;;1.98;;
68106;SDS011;54892;47.488;19.026;2022-10-17T13:32:46;4.50;;;2.45;;
68106;SDS011;54892;47.488;19.026;2022-10-17T13:35:49;5.18;;;2.28;;
68106;SDS011;54892;47.488;19.026;2022-10-17T13:39:04;7.60;;;2.53;;
68106;SDS011;54892;47.488;19.026;2022-10-17T13:42:17;7.03;;;2.45;;
68106;SDS011;54892;47.488;19.026;2022-10-17T13:45:27;6.05;;;2.20;;
68106;SDS011;54892;47.488;19.026;2022-10-17T13:48:32;4.12;;;2.47;;
68106;SDS011;54892;47.488;19.026;2022-10-17T13:51:40;7.37;;;2.58;;
68106;SDS011;54892;47.488;19.026;2022-10-17T13:54:46;5.10;;;2.35;;
68106;SDS011;54892;47.488;19.026;2022-10-17T13:57:51;6.18;;;2.40;;
68106;SDS011;54892;47.488;19.026;2022-10-17T14:00:55;16.75;;;2.80;;
68106;SDS011;54892;47.488;19.026;2022-10-17T14:03:59;4.65;;;2.20;;
68106;SDS011;54892;47.488;19.026;2022-10-17T14:07:15;8.00;;;2.55;;
68106;SDS011;54892;47.488;19.026;2022-10-17T14:10:26;9.18;;;2.40;;
68106;SDS011;54892;47.488;19.026;2022-10-17T14:13:33;6.10;;;2.25;;
68106;SDS011;54892;47.488;19.026;2022-10-17T14:16:38;5.47;;;2.20;;
68106;SDS011;54892;47.488;19.026;2022-10-17T14:19:43;10.43;;;2.50;;
68106;SDS011;54892;47.488;19.026;2022-10-17T14:22:51;2.85;;;2.12;;
68106;SDS011;54892;47.488;19.026;2022-10-17T14:26:12;6.30;;;2.42;;
68106;SDS011;54892;47.488;19.026;2022-10-17T14:29:21;7.93;;;2.50;;
68106;SDS011;54892;47.488;19.026;2022-10-17T14:32:27;8.35;;;2.90;;
68106;SDS011;54892;47.488;19.026;2022-10-17T14:35:33;9.90;;;2.97;;
68106;SDS011;54892;47.488;19.026;2022-10-17T14:38:43;7.35;;;2.45;;
68106;SDS011;54892;47.488;19.026;2022-10-17T14:41:47;7.28;;;2.80;;
68106;SDS011;54892;47.488;19.026;2022-10-17T14:44:53;8.85;;;2.70;;
68106;SDS011;54892;47.488;19.026;2022-10-17T14:48:01;7.72;;;2.40;;
68106;SDS011;54892;47.488;19.026;2022-10-17T14:51:07;5.20;;;2.95;;
68106;SDS011;54892;47.488;19.026;2022-10-17T14:54:25;5.95;;;2.92;;
68106;SDS011;54892;47.488;19.026;2022-10-17T14:57:39;7.05;;;2.80;;
68106;SDS011;54892;47.488;19.026;2022-10-17T15:00:44;7.28;;;2.65;;
68106;SDS011;54892;47.488;19.026;2022-10-17T15:03:48;4.60;;;2.80;;
68106;SDS011;54892;47.488;19.026;2022-10-17T15:06:52;13.13;;;2.85;;
68106;SDS011;54892;47.488;19.026;2022-10-17T15:09:57;8.82;;;2.85;;
68106;SDS011;54892;47.488;19.026;2022-10-17T15:13:01;9.80;;;3.05;;
68106;SDS011;54892;47.488;19.026;2022-10-17T15:16:17;6.53;;;2.80;;
68106;SDS011;54892;47.488;19.026;2022-10-17T15:19:23;4.93;;;2.85;;
68106;SDS011;54892;47.488;19.026;2022-10-17T15:22:26;6.20;;;2.90;;
68106;SDS011;54892;47.488;19.026;2022-10-17T15:28:35;6.00;;;2.80;;
68106;SDS011;54892;47.488;19.026;2022-10-17T15:31:39;12.75;;;3.17;;
68106;SDS011;54892;47.488;19.026;2022-10-17T15:34:43;12.00;;;2.60;;
68106;SDS011;54892;47.488;19.026;2022-10-17T15:37:47;8.45;;;3.17;;
68106;SDS011;54892;47.488;19.026;2022-10-17T15:40:50;6.22;;;2.95;;
68106;SDS011;54892;47.488;19.026;2022-10-17T15:43:53;4.43;;;3.42;;
68106;SDS011;54892;47.488;19.026;2022-10-17T15:46:57;7.85;;;4.55;;
68106;SDS011;54892;47.488;19.026;2022-10-17T15:50:01;19.77;;;5.65;;
68106;SDS011;54892;47.488;19.026;2022-10-17T15:53:07;12.75;;;5.35;;
68106;SDS011;54892;47.488;19.026;2022-10-17T15:56:19;11.30;;;4.43;;
68106;SDS011;54892;47.488;19.026;2022-10-17T15:59:26;7.32;;;3.62;;
68106;SDS011;54892;47.488;19.026;2022-10-17T16:02:33;9.68;;;3.53;;
68106;SDS011;54892;47.488;19.026;2022-10-17T16:05:37;8.27;;;3.25;;
68106;SDS011;54892;47.488;19.026;2022-10-17T16:08:41;7.57;;;4.07;;
68106;SDS011;54892;47.488;19.026;2022-10-17T16:11:44;11.10;;;3.37;;
68106;SDS011;54892;47.488;19.026;2022-10-17T16:14:47;6.87;;;3.40;;
68106;SDS011;54892;47.488;19.026;2022-10-17T16:17:51;10.95;;;3.50;;
68106;SDS011;54892;47.488;19.026;2022-10-17T16:20:56;9.50;;;3.80;;
68106;SDS011;54892;47.488;19.026;2022-10-17T16:24:00;14.40;;;4.22;;
68106;SDS011;54892;47.488;19.026;2022-10-17T16:27:03;9.20;;;4.35;;
68106;SDS011;54892;47.488;19.026;2022-10-17T16:30:07;11.90;;;3.75;;
68106;SDS011;54892;47.488;19.026;2022-10-17T16:33:10;11.65;;;4.37;;
68106;SDS011;54892;47.488;19.026;2022-10-17T16:36:15;9.55;;;4.55;;
68106;SDS011;54892;47.488;19.026;2022-10-17T16:39:18;9.40;;;3.83;;
68106;SDS011;54892;47.488;19.026;2022-10-17T16:42:21;10.32;;;4.68;;
68106;SDS011;54892;47.488;19.026;2022-10-17T16:45:24;7.07;;;4.43;;
68106;SDS011;54892;47.488;19.026;2022-10-17T16:48:28;9.90;;;3.60;;
68106;SDS011;54892;47.488;19.026;2022-10-17T16:51:32;13.73;;;4.15;;
68106;SDS011;54892;47.488;19.026;2022-10-17T16:54:37;20.90;;;7.22;;
68106;SDS011;54892;47.488;19.026;2022-10-17T16:57:41;13.75;;;4.68;;
68106;SDS011;54892;47.488;19.026;2022-10-17T17:00:45;12.02;;;4.40;;
68106;SDS011;54892;47.488;19.026;2022-10-17T17:03:49;11.60;;;4.97;;
68106;SDS011;54892;47.488;19.026;2022-10-17T17:06:54;10.20;;;4.40;;
68106;SDS011;54892;47.488;19.026;2022-10-17T17:09:57;15.05;;;4.60;;
68106;SDS011;54892;47.488;19.026;2022-10-17T17:13:00;10.60;;;4.80;;
68106;SDS011;54892;47.488;19.026;2022-10-17T17:16:05;12.37;;;4.85;;
68106;SDS011;54892;47.488;19.026;2022-10-17T17:19:11;14.07;;;4.35;;
68106;SDS011;54892;47.488;19.026;2022-10-17T17:22:18;13.13;;;4.32;;
68106;SDS011;54892;47.488;19.026;2022-10-17T17:28:25;11.07;;;4.85;;
68106;SDS011;54892;47.488;19.026;2022-10-17T17:34:36;14.33;;;4.03;;
68106;SDS011;54892;47.488;19.026;2022-10-17T17:37:41;19.55;;;6.37;;
68106;SDS011;54892;47.488;19.026;2022-10-17T17:40:44;10.52;;;5.00;;
68106;SDS011;54892;47.488;19.026;2022-10-17T17:43:48;14.27;;;5.32;;
68106;SDS011;54892;47.488;19.026;2022-10-17T17:46:52;14.70;;;4.32;;
68106;SDS011;54892;47.488;19.026;2022-10-17T17:49:56;11.98;;;4.37;;
68106;SDS011;54892;47.488;19.026;2022-10-17T17:53:02;8.55;;;4.47;;
68106;SDS011;54892;47.488;19.026;2022-10-17T17:59:10;8.40;;;4.70;;
68106;SDS011;54892;47.488;19.026;2022-10-17T18:02:15;8.60;;;4.53;;
68106;SDS011;54892;47.488;19.026;2022-10-17T18:05:18;11.80;;;4.47;;
68106;SDS011;54892;47.488;19.026;2022-10-17T18:08:22;12.20;;;4.82;;
68106;SDS011;54892;47.488;19.026;2022-10-17T18:11:27;14.75;;;5.35;;
68106;SDS011;54892;47.488;19.026;2022-10-17T18:14:31;10.32;;;4.65;;
68106;SDS011;54892;47.488;19.026;2022-10-17T18:17:35;13.15;;;5.12;;
68106;SDS011;54892;47.488;19.026;2022-10-17T18:20:39;9.23;;;4.43;;
68106;SDS011;54892;47.488;19.026;2022-10-17T18:23:45;11.50;;;5.50;;
68106;SDS011;54892;47.488;19.026;2022-10-17T18:26:49;11.90;;;5.43;;
68106;SDS011;54892;47.488;19.026;2022-10-17T18:29:58;10.20;;;4.78;;
68106;SDS011;54892;47.488;19.026;2022-10-17T18:33:02;13.70;;;4.95;;
68106;SDS011;54892;47.488;19.026;2022-10-17T18:36:06;13.75;;;5.30;;
68106;SDS011;54892;47.488;19.026;2022-10-17T18:39:12;10.27;;;4.62;;
68106;SDS011;54892;47.488;19.026;2022-10-17T18:42:15;11.43;;;5.28;;
68106;SDS011;54892;47.488;19.026;2022-10-17T18:45:19;10.23;;;4.70;;